메인 페이지
METAR-TAF:

METAR-TAF

공항 :

위치토, 캔자스, 미국

위도: 37-37N, 경도: 097-16W, 고도: 418m

현재 날씨관측

예보는 11분 전, 22:56시(UTC)에 발표되었습니다.
북북동3kt
온도 13°C
습도 82%
기압 1017 hPa
시정: 16.1km
고도 1500ft 상공 흐림

METAR: KIAB 232256Z AUTO 03003KT 10SM OVC015 13/10 A3003 RMK AO2 SLP171 T01320096

시각: 18:07 (23:07 UTC)

예보

예보는 5 시간 7분 전, 18:00시(UTC)에 발표되었습니다.
예보 대상 시간: 23일 18시부터 24일 24시까지 (UTC)
북북동12kt
시정: 9000m
고도 800ft 상공 흐림
약한비
전환 중
23일 20시부터 23일 21시까지 (UTC)
북북서6kt
시정 10km 이상
고도 1500ft 상공 흐림
전환 중
24일 05시부터 24일 06시까지 (UTC)
여러 방향의 바람 6kt
시정: 8000m
고도 2500ft 상공 흐림
박무
전환 중
24일 14시부터 24일 15시까지 (UTC)
여러 방향의 바람 6kt
시정 10km 이상
고도 4000ft 상공 구름 보통

TAF: KIAB 231800Z 2318/2424 03012KT 9000 -RA OVC008 QNH3000INS BECMG 2320/2321 34006KT 9999 NSW OVC015 QNH2997INS BECMG 2405/2406 VRB06KT 8000 BR OVC025 QNH2995INS BECMG 2414/2415 VRB06KT 9999 NSW SCT040 QNH2984INS TX19/2418Z TN08/2412Z

4,000개 이상의 공항 관측 자료 및 예보 (METAR 및 TAF 보고).

지도상에서 검색 가능한 기상관측소가 노란 점과 빨간 점으로 표시되어 있습니다.

기상관측소 명을 보려면 표시 위로 마우스를 이동하세요.

날씨 관측과 예보를 보려면 클릭하세요.

지도 변경 : 확대하려면 엑스 표시가 있는 녹색 버튼, 축소하려면 빼기 표시가 있는 녹색 버튼, 다음 페이지의 지도를 보려면 녹색 화살표를 클릭하세요.


METAR-TAF: